Time;durP1;ratioP1;P1;durP2;ratioP2;P2;SDS_P1;SDS_P2;PMS_P1;PMS_P2;Temp;Humidity;BMP_temperature;BMP_pressure;BME280_temperature;BME280_humidity;BME280_pressure;Samples;Min_cycle;Max_cycle;Signal;HPM_P1;HPM_P2
2023/05/11 00:01:06;;;;;;;22.63;13.52;;;12.00;99.90;;;;;;5020225;28;20041;-84
2023/05/11 00:03:32;;;;;;;19.67;13.25;;;12.00;99.90;;;;;;5035735;28;20124;-84
2023/05/11 00:05:59;;;;;;;23.05;14.48;;;11.90;99.90;;;;;;5019213;28;20045;-84
2023/05/11 00:08:25;;;;;;;27.30;14.52;;;11.70;99.90;;;;;;5018298;28;20072;-84
2023/05/11 00:10:50;;;;;;;26.17;14.95;;;11.80;99.90;;;;;;5018255;28;20213;-84
2023/05/11 00:13:17;;;;;;;21.58;13.73;;;11.70;99.90;;;;;;5020972;28;20328;-84
2023/05/11 00:15:42;;;;;;;26.08;14.10;;;11.70;99.90;;;;;;5019843;28;20514;-84
2023/05/11 00:18:08;;;;;;;25.35;14.65;;;11.70;99.90;;;;;;5016436;28;20040;-85
2023/05/11 00:20:34;;;;;;;22.08;14.65;;;11.60;99.90;;;;;;5032406;28;20048;-84
2023/05/11 00:23:00;;;;;;;22.35;14.52;;;11.70;99.90;;;;;;5036499;28;20037;-84
2023/05/11 00:25:26;;;;;;;24.60;13.75;;;11.70;99.90;;;;;;5032746;28;20040;-84
2023/05/11 00:27:51;;;;;;;20.80;13.75;;;11.80;99.90;;;;;;5022198;28;20079;-84
2023/05/11 00:30:20;;;;;;;22.13;13.63;;;11.80;99.90;;;;;;5019523;28;20102;-84
2023/05/11 00:32:47;;;;;;;24.65;13.98;;;11.60;99.90;;;;;;5035936;28;20064;-84
2023/05/11 00:35:13;;;;;;;26.13;13.98;;;11.60;99.90;;;;;;5020360;28;20064;-84
2023/05/11 00:37:39;;;;;;;21.70;13.60;;;11.70;99.90;;;;;;5039182;28;20083;-84
2023/05/11 00:40:05;;;;;;;25.80;14.57;;;11.70;99.90;;;;;;5037138;28;20056;-85
2023/05/11 00:42:31;;;;;;;20.90;13.10;;;11.70;99.90;;;;;;5022564;28;20312;-84
2023/05/11 00:44:57;;;;;;;22.75;14.07;;;11.70;99.90;;;;;;5021839;28;20524;-85
2023/05/11 00:47:22;;;;;;;22.27;13.35;;;11.80;99.90;;;;;;5021745;28;20129;-84
2023/05/11 00:49:51;;;;;;;19.25;12.15;;;11.80;99.90;;;;;;5014952;28;20119;-84
2023/05/11 00:52:17;;;;;;;17.30;11.57;;;11.80;99.90;;;;;;5022615;28;20080;-84
2023/05/11 00:54:43;;;;;;;18.58;11.88;;;11.80;99.90;;;;;;5026988;28;20079;-84
2023/05/11 00:57:08;;;;;;;18.20;12.35;;;11.70;99.90;;;;;;5016968;28;20123;-85
2023/05/11 00:59:34;;;;;;;19.25;12.20;;;11.80;99.90;;;;;;5020910;28;20318;-85
2023/05/11 01:02:01;;;;;;;17.50;11.00;;;11.80;99.90;;;;;;5018548;28;20065;-84
2023/05/11 01:04:32;;;;;;;21.48;12.88;;;11.80;99.90;;;;;;5014345;28;20207;-84
2023/05/11 01:07:32;;;;;;;17.90;11.65;;;11.70;99.90;;;;;;5022915;28;20388;-85
2023/05/11 01:10:05;;;;;;;22.92;12.82;;;11.60;99.90;;;;;;5019175;28;20167;-84
2023/05/11 01:12:55;;;;;;;19.52;12.07;;;11.50;99.90;;;;;;5034767;28;20049;-84
2023/05/11 01:15:30;;;;;;;18.25;11.57;;;11.60;99.90;;;;;;5033324;28;20045;-84
2023/05/11 01:18:26;;;;;;;16.95;11.35;;;11.60;99.90;;;;;;5050304;28;20042;-84
2023/05/11 01:20:56;;;;;;;16.42;10.63;;;11.60;99.90;;;;;;5023018;28;20459;-85
2023/05/11 01:24:07;;;;;;;17.67;11.13;;;11.60;99.90;;;;;;5020014;28;20037;-84
2023/05/11 01:26:45;;;;;;;16.95;11.20;;;11.60;99.90;;;;;;5022947;28;20374;-84
2023/05/11 01:29:36;;;;;;;19.70;11.80;;;11.60;99.90;;;;;;5018653;28;20557;-84
2023/05/11 01:32:07;;;;;;;17.48;11.88;;;11.60;99.90;;;;;;5020392;28;20053;-85
2023/05/11 01:34:37;;;;;;;19.77;12.15;;;11.60;99.90;;;;;;5033341;28;20075;-84
2023/05/11 01:37:11;;;;;;;20.85;11.88;;;11.60;99.90;;;;;;5012688;28;20049;-85
2023/05/11 01:40:01;;;;;;;18.17;12.10;;;11.50;99.90;;;;;;5016283;28;20048;-85
2023/05/11 01:42:43;;;;;;;26.30;13.40;;;11.60;99.90;;;;;;5034928;28;20041;-84
2023/05/11 01:45:11;;;;;;;18.48;12.20;;;11.50;99.90;;;;;;5016016;28;20488;-84
2023/05/11 01:47:39;;;;;;;20.67;12.07;;;11.40;99.90;;;;;;5020639;28;20454;-84
2023/05/11 01:50:07;;;;;;;30.83;12.43;;;11.40;99.90;;;;;;5034942;28;20053;-85
2023/05/11 01:52:36;;;;;;;32.92;13.50;;;11.40;99.90;;;;;;5024264;28;20167;-85
2023/05/11 01:55:04;;;;;;;29.35;12.88;;;11.40;99.90;;;;;;5032526;28;20041;-85
2023/05/11 01:57:35;;;;;;;19.75;11.90;;;11.40;99.90;;;;;;5033172;28;20066;-84
2023/05/11 02:00:02;;;;;;;20.10;12.18;;;11.40;99.90;;;;;;5031823;28;20041;-84
2023/05/11 02:02:28;;;;;;;22.52;12.30;;;11.50;99.90;;;;;;5014659;28;20045;-84
2023/05/11 02:04:56;;;;;;;45.60;13.60;;;11.50;99.90;;;;;;5020676;28;20518;-85
2023/05/11 02:07:23;;;;;;;45.45;15.35;;;11.40;99.90;;;;;;5018582;28;20453;-85
2023/05/11 02:09:50;;;;;;;29.70;13.75;;;11.40;99.90;;;;;;5013894;28;20057;-84
2023/05/11 02:12:18;;;;;;;24.08;13.80;;;11.40;99.90;;;;;;5030015;28;20107;-85
2023/05/11 02:14:46;;;;;;;35.35;15.07;;;11.50;99.90;;;;;;5021113;28;20369;-84
2023/05/11 02:17:13;;;;;;;28.10;14.05;;;11.50;99.90;;;;;;5022170;28;20037;-85
2023/05/11 02:19:41;;;;;;;23.63;14.02;;;11.50;99.90;;;;;;5012882;28;20516;-84
2023/05/11 02:22:08;;;;;;;49.95;16.30;;;11.50;99.90;;;;;;5016190;28;20060;-85
2023/05/11 02:24:35;;;;;;;40.30;16.58;;;11.50;99.90;;;;;;5016044;28;20037;-84
2023/05/11 02:27:01;;;;;;;34.38;15.35;;;11.50;99.90;;;;;;5024318;28;20490;-85
2023/05/11 02:29:27;;;;;;;33.03;15.95;;;11.60;99.90;;;;;;5022844;28;20112;-84
2023/05/11 02:32:00;;;;;;;29.33;16.30;;;11.50;99.90;;;;;;5024195;28;20120;-85
2023/05/11 02:34:28;;;;;;;31.45;17.25;;;11.60;99.90;;;;;;5033770;28;20044;-84
2023/05/11 02:36:59;;;;;;;26.02;15.45;;;11.60;99.90;;;;;;5024358;28;20064;-84
2023/05/11 02:39:32;;;;;;;28.73;14.60;;;11.60;99.90;;;;;;5017894;28;20161;-84
2023/05/11 02:42:00;;;;;;;31.63;14.60;;;11.60;99.90;;;;;;5037350;28;20049;-85
2023/05/11 02:44:33;;;;;;;25.13;14.05;;;11.60;99.90;;;;;;5022074;28;20053;-85
2023/05/11 02:47:02;;;;;;;25.73;14.18;;;11.60;99.90;;;;;;5019571;28;20044;-85
2023/05/11 02:49:30;;;;;;;28.00;13.57;;;11.70;99.90;;;;;;5023796;28;20045;-85
2023/05/11 02:51:58;;;;;;;29.05;13.95;;;11.60;99.90;;;;;;5035144;28;20040;-85
2023/05/11 02:54:25;;;;;;;29.40;14.35;;;11.60;99.90;;;;;;5034947;28;20045;-84
2023/05/11 02:56:52;;;;;;;49.80;15.68;;;11.60;99.90;;;;;;5021947;28;20044;-85
2023/05/11 02:59:18;;;;;;;37.58;13.88;;;11.50;99.90;;;;;;5031676;28;20087;-84
2023/05/11 03:01:44;;;;;;;23.25;12.95;;;11.50;99.90;;;;;;5022887;28;20518;-85
2023/05/11 03:04:10;;;;;;;21.73;12.75;;;11.60;99.90;;;;;;5021701;28;20047;-84
2023/05/11 03:06:36;;;;;;;21.42;11.35;;;11.60;99.90;;;;;;5024548;28;20040;-85
2023/05/11 03:09:02;;;;;;;24.88;12.60;;;11.60;99.90;;;;;;5019578;28;20292;-85
2023/05/11 03:11:28;;;;;;;19.40;11.57;;;11.60;99.90;;;;;;5023233;28;20055;-85
2023/05/11 03:13:54;;;;;;;17.40;10.75;;;11.60;99.90;;;;;;5024476;28;20608;-84
2023/05/11 03:16:21;;;;;;;14.48;9.88;;;11.60;99.90;;;;;;5023259;28;20064;-85
2023/05/11 03:18:48;;;;;;;17.08;10.25;;;11.60;99.90;;;;;;5033906;28;20103;-85
2023/05/11 03:21:20;;;;;;;15.45;10.23;;;11.60;99.90;;;;;;5034099;28;20030;-84
2023/05/11 03:23:47;;;;;;;23.35;11.95;;;11.60;99.90;;;;;;5014966;28;20033;-85
2023/05/11 03:26:16;;;;;;;16.45;10.60;;;11.60;99.90;;;;;;5032890;28;20041;-85
2023/05/11 03:28:46;;;;;;;21.80;11.93;;;11.60;99.90;;;;;;5033218;28;20072;-85
2023/05/11 03:31:12;;;;;;;18.40;11.18;;;11.60;99.90;;;;;;5019193;28;20124;-85
2023/05/11 03:33:38;;;;;;;18.38;11.52;;;11.60;99.90;;;;;;5023733;28;20116;-84
2023/05/11 03:36:05;;;;;;;19.60;11.77;;;11.50;99.90;;;;;;5021767;28;20044;-85
2023/05/11 03:38:32;;;;;;;18.90;11.05;;;11.60;99.90;;;;;;5022215;28;20523;-85
2023/05/11 03:41:01;;;;;;;17.73;10.80;;;11.50;99.90;;;;;;5021476;28;20594;-85
2023/05/11 03:43:30;;;;;;;18.23;10.32;;;11.50;99.90;;;;;;5019942;28;20408;-85
2023/05/11 03:45:56;;;;;;;16.15;10.15;;;11.50;99.90;;;;;;5019635;28;20083;-85
2023/05/11 03:48:22;;;;;;;15.40;9.30;;;11.50;99.90;;;;;;5035958;28;20037;-85
2023/05/11 03:50:49;;;;;;;18.02;10.38;;;11.50;99.90;;;;;;5018734;28;20518;-85
2023/05/11 03:53:15;;;;;;;18.67;10.70;;;11.50;99.90;;;;;;5018984;28;20136;-85
2023/05/11 03:55:41;;;;;;;19.85;10.60;;;11.50;99.90;;;;;;5020757;28;20037;-84
2023/05/11 03:58:07;;;;;;;32.35;14.48;;;11.50;99.90;;;;;;5038494;28;20091;-85
2023/05/11 04:00:37;;;;;;;34.00;14.98;;;11.50;99.90;;;;;;5016336;28;20033;-85
2023/05/11 04:03:05;;;;;;;43.17;17.52;;;11.50;99.90;;;;;;5023982;28;20049;-85
2023/05/11 04:05:31;;;;;;;41.88;17.67;;;11.50;99.90;;;;;;5022265;28;20044;-85
2023/05/11 04:07:56;;;;;;;32.88;15.43;;;11.50;99.90;;;;;;5039288;28;20448;-85
2023/05/11 04:10:22;;;;;;;47.97;19.05;;;11.50;99.90;;;;;;5020981;28;20083;-85
2023/05/11 04:12:48;;;;;;;43.00;18.58;;;11.50;99.90;;;;;;5021394;28;20045;-85
2023/05/11 04:15:13;;;;;;;42.92;17.55;;;11.50;99.90;;;;;;5020679;28;20519;-85
2023/05/11 04:17:39;;;;;;;47.33;19.02;;;11.50;99.90;;;;;;5035357;28;20033;-85
2023/05/11 04:20:05;;;;;;;70.15;22.90;;;11.60;99.90;;;;;;5018717;28;20033;-85
2023/05/11 04:22:31;;;;;;;62.83;22.15;;;11.50;99.90;;;;;;5016854;28;20087;-85
2023/05/11 04:24:57;;;;;;;70.03;23.25;;;11.60;99.90;;;;;;5018033;28;20120;-85
2023/05/11 04:27:22;;;;;;;68.20;24.17;;;11.60;99.90;;;;;;5032717;28;20067;-85
2023/05/11 04:29:48;;;;;;;70.30;24.80;;;11.60;99.90;;;;;;5034576;28;20048;-84
2023/05/11 04:32:14;;;;;;;68.63;24.33;;;11.60;99.90;;;;;;5021928;28;20408;-84
2023/05/11 04:34:40;;;;;;;94.68;26.00;;;11.70;99.90;;;;;;5020375;28;20048;-85
2023/05/11 04:37:06;;;;;;;73.05;25.75;;;11.70;99.90;;;;;;5022887;28;20042;-85
2023/05/11 04:39:33;;;;;;;94.57;27.05;;;11.70;99.90;;;;;;5012991;28;20063;-85
2023/05/11 04:41:59;;;;;;;93.93;26.88;;;11.70;99.90;;;;;;5023472;28;20128;-84
2023/05/11 04:44:25;;;;;;;83.45;25.67;;;11.70;99.90;;;;;;5021841;28;20155;-85
2023/05/11 04:46:55;;;;;;;85.55;24.73;;;11.70;99.90;;;;;;5017103;28;20285;-85
2023/05/11 04:49:20;;;;;;;72.18;23.88;;;11.60;99.90;;;;;;5021207;28;20048;-85
2023/05/11 04:51:46;;;;;;;70.78;23.40;;;11.70;99.90;;;;;;5020077;28;20049;-85
2023/05/11 04:54:12;;;;;;;59.72;22.67;;;11.70;99.90;;;;;;5033804;28;20045;-85
2023/05/11 04:56:39;;;;;;;55.72;21.05;;;11.70;99.90;;;;;;5033278;28;20347;-84
2023/05/11 04:59:09;;;;;;;63.08;21.95;;;11.80;99.90;;;;;;5020265;28;20045;-84
2023/05/11 05:01:37;;;;;;;70.55;23.02;;;11.80;99.90;;;;;;5035024;28;20041;-85
2023/05/11 05:04:03;;;;;;;59.58;19.73;;;11.80;99.90;;;;;;5017866;28;20506;-84
2023/05/11 05:06:29;;;;;;;59.13;20.00;;;11.80;99.90;;;;;;5018778;28;20112;-84
2023/05/11 05:08:54;;;;;;;55.20;19.98;;;11.80;99.90;;;;;;5018193;28;20041;-84
2023/05/11 05:11:20;;;;;;;53.13;19.42;;;11.70;99.90;;;;;;5021734;28;20064;-85
2023/05/11 05:13:46;;;;;;;49.15;18.23;;;11.80;99.90;;;;;;5033050;28;20330;-84
2023/05/11 05:16:12;;;;;;;44.80;17.70;;;11.90;99.90;;;;;;5032172;28;20106;-85
2023/05/11 05:18:37;;;;;;;42.40;17.17;;;12.00;99.90;;;;;;5012368;28;21015;-84
2023/05/11 05:21:03;;;;;;;40.53;16.40;;;12.10;99.90;;;;;;5020933;28;20107;-84
2023/05/11 05:23:29;;;;;;;33.90;14.93;;;12.10;99.90;;;;;;5016790;28;20063;-85
2023/05/11 05:25:54;;;;;;;34.00;14.98;;;12.10;99.90;;;;;;5017234;28;20048;-85
2023/05/11 05:28:20;;;;;;;34.30;15.43;;;12.20;99.90;;;;;;5022174;28;20519;-85
2023/05/11 05:30:46;;;;;;;37.17;15.80;;;12.20;99.90;;;;;;5034152;28;20037;-85
2023/05/11 05:33:11;;;;;;;36.28;15.45;;;12.20;99.90;;;;;;5013214;28;20057;-85
2023/05/11 05:35:37;;;;;;;36.97;15.02;;;12.30;99.90;;;;;;5016198;28;20044;-85
2023/05/11 05:38:03;;;;;;;30.98;14.30;;;12.30;99.90;;;;;;5019554;28;20636;-84
2023/05/11 05:40:28;;;;;;;27.98;13.80;;;12.40;99.90;;;;;;5037090;28;20040;-84
2023/05/11 05:42:54;;;;;;;28.95;13.98;;;12.30;99.90;;;;;;5017282;28;20251;-84
2023/05/11 05:45:20;;;;;;;31.65;14.60;;;12.30;99.90;;;;;;5019731;28;20117;-84
2023/05/11 05:47:47;;;;;;;27.60;13.15;;;12.40;99.90;;;;;;5020849;28;20044;-85
2023/05/11 05:50:13;;;;;;;29.92;14.63;;;12.30;99.90;;;;;;5020682;28;20033;-85
2023/05/11 05:52:39;;;;;;;27.85;13.43;;;12.20;99.90;;;;;;5022815;28;20479;-85
2023/05/11 05:55:05;;;;;;;35.38;16.38;;;12.30;99.90;;;;;;5018771;28;20098;-84
2023/05/11 05:57:31;;;;;;;54.67;18.33;;;12.10;99.90;;;;;;5019178;28;20033;-85
2023/05/11 05:59:57;;;;;;;48.75;19.77;;;12.00;99.90;;;;;;5032327;28;20056;-85
2023/05/11 06:02:22;;;;;;;47.72;18.05;;;11.90;99.90;;;;;;5034964;28;20622;-85
2023/05/11 06:04:48;;;;;;;49.95;18.15;;;12.10;99.90;;;;;;5019270;28;20745;-85
2023/05/11 06:07:14;;;;;;;43.22;16.60;;;12.10;99.90;;;;;;5039966;28;20200;-85
2023/05/11 06:09:40;;;;;;;41.95;17.45;;;12.10;99.90;;;;;;5020441;28;20480;-85
2023/05/11 06:12:06;;;;;;;39.83;16.35;;;12.20;99.90;;;;;;5025153;28;20041;-84
2023/05/11 06:14:31;;;;;;;35.67;16.10;;;12.40;99.90;;;;;;5034191;28;20557;-85
2023/05/11 06:16:57;;;;;;;31.92;15.13;;;12.50;99.90;;;;;;5023597;28;20060;-85
2023/05/11 06:19:23;;;;;;;32.17;15.23;;;12.60;99.90;;;;;;5048762;28;20045;-84
2023/05/11 06:21:48;;;;;;;26.52;14.13;;;12.40;99.90;;;;;;5023941;28;20186;-84
2023/05/11 06:24:14;;;;;;;25.85;13.95;;;12.60;99.90;;;;;;5032960;28;20461;-85
2023/05/11 06:26:40;;;;;;;28.25;14.82;;;12.60;99.90;;;;;;5023175;28;20123;-85
2023/05/11 06:29:06;;;;;;;26.05;14.18;;;12.60;99.90;;;;;;5022938;28;20044;-85
2023/05/11 06:31:33;;;;;;;27.15;14.60;;;12.80;99.90;;;;;;5030178;28;20037;-85
2023/05/11 06:33:58;;;;;;;26.95;13.95;;;12.70;99.90;;;;;;5021769;28;20111;-85
2023/05/11 06:36:24;;;;;;;24.92;13.23;;;12.70;99.90;;;;;;5025798;28;20120;-84
2023/05/11 06:38:53;;;;;;;24.10;13.52;;;12.80;99.90;;;;;;5019258;28;20811;-85
2023/05/11 06:41:18;;;;;;;24.52;14.35;;;12.50;99.90;;;;;;5021982;28;20483;-85
2023/05/11 06:43:44;;;;;;;23.55;14.05;;;12.70;99.90;;;;;;5022419;28;20048;-84
2023/05/11 06:46:15;;;;;;;20.58;12.95;;;12.80;99.90;;;;;;5035656;28;20037;-85
2023/05/11 06:48:41;;;;;;;19.80;12.25;;;12.80;99.90;;;;;;5025595;28;20375;-85
2023/05/11 06:51:10;;;;;;;19.13;12.20;;;12.60;99.90;;;;;;5023081;28;20140;-84
2023/05/11 06:53:36;;;;;;;18.15;12.65;;;12.90;99.90;;;;;;5025204;28;20045;-85
2023/05/11 06:56:02;;;;;;;18.98;11.85;;;13.00;99.90;;;;;;5022208;28;20041;-85
2023/05/11 06:58:28;;;;;;;21.73;12.23;;;13.40;99.90;;;;;;5035723;28;20041;-85
2023/05/11 07:00:55;;;;;;;16.98;11.95;;;13.30;99.90;;;;;;5020227;28;20077;-85
2023/05/11 07:03:20;;;;;;;19.33;12.55;;;13.60;99.90;;;;;;5016814;28;20037;-85
2023/05/11 07:05:49;;;;;;;21.85;14.15;;;13.60;99.90;;;;;;5036273;28;20037;-85
2023/05/11 07:08:15;;;;;;;20.48;13.38;;;13.80;99.90;;;;;;5025573;28;20036;-85
2023/05/11 07:10:40;;;;;;;20.42;13.90;;;13.60;99.90;;;;;;5018566;28;20450;-86
2023/05/11 07:13:06;;;;;;;21.10;13.35;;;13.40;99.90;;;;;;5020990;28;20045;-85
2023/05/11 07:15:32;;;;;;;17.42;11.90;;;13.40;99.90;;;;;;5032185;28;20033;-85
2023/05/11 07:18:00;;;;;;;18.00;12.23;;;13.60;99.90;;;;;;5024520;28;20522;-86
2023/05/11 07:20:26;;;;;;;20.90;13.93;;;13.40;99.90;;;;;;5022013;28;20481;-85
2023/05/11 07:22:58;;;;;;;22.73;14.18;;;13.10;99.90;;;;;;5024996;28;20512;-85
2023/05/11 07:25:24;;;;;;;20.70;12.93;;;13.40;99.90;;;;;;5023151;28;20500;-85
2023/05/11 07:27:50;;;;;;;20.98;13.57;;;13.60;99.90;;;;;;5022263;28;20131;-84
2023/05/11 07:30:16;;;;;;;23.83;14.70;;;13.50;99.90;;;;;;5021973;28;20403;-85
2023/05/11 07:32:41;;;;;;;20.08;13.38;;;13.20;99.90;;;;;;5020600;28;20049;-84
2023/05/11 07:35:07;;;;;;;23.52;13.95;;;13.30;99.90;;;;;;5022097;28;20044;-84
2023/05/11 07:37:33;;;;;;;22.98;14.90;;;13.40;99.90;;;;;;5034801;28;20127;-85
2023/05/11 07:39:59;;;;;;;23.65;14.63;;;13.60;99.90;;;;;;5019835;28;20051;-84
2023/05/11 07:42:24;;;;;;;24.77;16.10;;;13.30;99.90;;;;;;5024245;28;20037;-85
2023/05/11 07:44:50;;;;;;;24.23;14.70;;;13.20;99.90;;;;;;5018103;28;20034;-85
2023/05/11 07:47:17;;;;;;;28.10;16.33;;;13.10;99.90;;;;;;5024753;28;20036;-85
2023/05/11 07:49:45;;;;;;;27.20;16.17;;;13.00;99.90;;;;;;5021977;28;20047;-85
2023/05/11 07:52:11;;;;;;;28.38;16.65;;;12.80;99.90;;;;;;5031978;28;20246;-84
2023/05/11 07:54:37;;;;;;;32.22;17.08;;;12.80;99.90;;;;;;5020834;28;20038;-84
2023/05/11 07:57:04;;;;;;;25.85;16.05;;;13.00;99.90;;;;;;5018056;28;20385;-85
2023/05/11 07:59:29;;;;;;;30.35;16.88;;;12.90;99.90;;;;;;5020474;28;20041;-85
2023/05/11 08:01:55;;;;;;;28.98;17.08;;;13.00;99.90;;;;;;5020020;28;20063;-85
2023/05/11 08:04:22;;;;;;;29.35;17.38;;;13.00;99.90;;;;;;5031699;28;20237;-85
2023/05/11 08:06:48;;;;;;;33.50;17.83;;;12.80;99.90;;;;;;5024676;28;20040;-85
2023/05/11 08:09:17;;;;;;;32.33;16.65;;;13.00;99.90;;;;;;5021585;28;20053;-85
2023/05/11 08:11:43;;;;;;;28.73;17.38;;;12.90;99.90;;;;;;5022500;28;20049;-85
2023/05/11 08:14:09;;;;;;;29.10;17.23;;;13.10;99.90;;;;;;5021825;28;20033;-85
2023/05/11 08:16:36;;;;;;;31.88;17.92;;;13.30;99.90;;;;;;5024977;28;20396;-84
2023/05/11 08:19:02;;;;;;;31.98;17.85;;;13.40;99.90;;;;;;5021358;28;20294;-85
2023/05/11 08:21:27;;;;;;;33.25;18.85;;;13.20;99.90;;;;;;5021259;28;20036;-85
2023/05/11 08:23:53;;;;;;;30.65;17.75;;;13.00;99.90;;;;;;5032234;28;20049;-84
2023/05/11 08:26:18;;;;;;;30.27;18.73;;;13.00;99.90;;;;;;5017681;28;20079;-85
2023/05/11 08:28:44;;;;;;;37.33;19.23;;;13.10;99.90;;;;;;5017331;28;20124;-85
2023/05/11 08:31:10;;;;;;;32.72;17.73;;;13.00;99.90;;;;;;5020626;28;20151;-85
2023/05/11 08:33:36;;;;;;;30.75;17.33;;;13.20;99.90;;;;;;5021053;28;20113;-85
2023/05/11 08:36:02;;;;;;;31.77;19.00;;;13.30;99.90;;;;;;5016961;28;20191;-85
2023/05/11 08:38:28;;;;;;;29.52;17.77;;;13.30;99.90;;;;;;5048807;28;20056;-85
2023/05/11 08:40:54;;;;;;;29.42;18.05;;;13.40;99.90;;;;;;5034957;28;20044;-85
2023/05/11 08:43:21;;;;;;;32.63;17.98;;;13.40;99.90;;;;;;5020500;28;20047;-85
2023/05/11 08:45:56;;;;;;;31.60;18.85;;;13.20;99.90;;;;;;5018195;28;20594;-86
2023/05/11 08:48:22;;;;;;;;;;;13.10;99.90;;;;;;5020911;28;20048;-85
2023/05/11 08:50:48;;;;;;;29.17;17.83;;;13.20;99.90;;;;;;5022060;28;20495;-85
2023/05/11 08:53:14;;;;;;;31.10;18.60;;;13.20;99.90;;;;;;5032190;28;20435;-85
2023/05/11 08:55:42;;;;;;;32.30;18.85;;;13.40;99.90;;;;;;5022297;28;20044;-85
2023/05/11 08:58:08;;;;;;;30.75;18.63;;;13.50;99.90;;;;;;5030721;28;20040;-85
2023/05/11 09:00:34;;;;;;;32.28;19.52;;;13.40;99.90;;;;;;5016742;28;20047;-86
2023/05/11 09:03:01;;;;;;;28.40;18.45;;;13.50;99.90;;;;;;5036366;28;20348;-86
2023/05/11 09:05:27;;;;;;;28.05;17.38;;;13.20;99.90;;;;;;5021903;28;20041;-85
2023/05/11 09:07:58;;;;;;;26.92;17.52;;;13.30;99.90;;;;;;5018560;28;20128;-85
2023/05/11 09:10:24;;;;;;;29.10;18.63;;;13.30;99.90;;;;;;5021533;28;20473;-85
2023/05/11 09:12:50;;;;;;;26.50;16.85;;;13.50;99.90;;;;;;5018149;28;20041;-86
2023/05/11 09:15:15;;;;;;;22.92;16.20;;;13.30;99.90;;;;;;5014977;28;20044;-86
2023/05/11 09:17:47;;;;;;;23.50;16.33;;;13.40;99.90;;;;;;5048433;28;20077;-85
2023/05/11 09:20:13;;;;;;;23.33;16.38;;;13.50;99.90;;;;;;5032982;28;20488;-86
2023/05/11 09:22:43;;;;;;;23.27;15.68;;;13.50;99.90;;;;;;5024115;28;20084;-86
2023/05/11 09:25:15;;;;;;;21.67;15.48;;;13.60;99.90;;;;;;5035645;28;20041;-86
2023/05/11 09:27:42;;;;;;;21.63;15.05;;;13.90;99.90;;;;;;5030744;28;20041;-85
2023/05/11 09:30:12;;;;;;;20.70;14.02;;;14.00;99.90;;;;;;5023253;28;20057;-86
2023/05/11 09:32:57;;;;;;;18.20;14.25;;;14.10;99.90;;;;;;5020328;28;20133;-86
2023/05/11 09:35:30;;;;;;;18.08;13.35;;;14.30;99.90;;;;;;5024921;28;20060;-85
2023/05/11 09:37:59;;;;;;;19.98;14.15;;;14.10;99.90;;;;;;5023578;28;20049;-85
2023/05/11 09:40:29;;;;;;;17.80;13.25;;;14.50;99.90;;;;;;5025238;28;20047;-86
2023/05/11 09:42:55;;;;;;;17.10;12.85;;;14.70;99.90;;;;;;5025844;28;20036;-86
2023/05/11 09:45:40;;;;;;;17.10;12.77;;;14.60;99.90;;;;;;5031165;28;20037;-86
2023/05/11 09:48:13;;;;;;;16.75;13.10;;;14.70;99.90;;;;;;5036365;28;20212;-86
2023/05/11 09:50:38;;;;;;;14.73;12.13;;;15.00;99.90;;;;;;5025894;28;20136;-86
2023/05/11 09:53:04;;;;;;;15.07;11.05;;;15.10;99.90;;;;;;5024227;28;20136;-85
2023/05/11 09:55:30;;;;;;;14.07;11.60;;;14.90;99.90;;;;;;5037619;28;20102;-85
2023/05/11 09:57:57;;;;;;;13.40;10.73;;;15.10;99.90;;;;;;5021127;28;20443;-86
2023/05/11 10:00:24;;;;;;;14.25;11.25;;;14.60;99.90;;;;;;5020831;28;20041;-86
2023/05/11 10:03:08;;;;;;;17.00;12.25;;;15.30;99.90;;;;;;5021068;28;20473;-85
2023/05/11 10:05:35;;;;;;;14.27;11.50;;;15.00;99.90;;;;;;5024484;28;20037;-86
2023/05/11 10:08:02;;;;;;;14.10;11.10;;;15.20;99.90;;;;;;5036916;28;20041;-86
2023/05/11 10:10:30;;;;;;;13.57;10.30;;;15.80;99.90;;;;;;5021971;28;20041;-86
2023/05/11 10:13:01;;;;;;;12.45;9.35;;;15.90;99.90;;;;;;5019305;28;20069;-86
2023/05/11 10:15:29;;;;;;;12.25;9.82;;;16.30;99.90;;;;;;5033320;28;20099;-86
2023/05/11 10:17:56;;;;;;;12.20;10.23;;;16.00;99.90;;;;;;5025885;28;20119;-85
2023/05/11 10:20:23;;;;;;;12.32;9.30;;;16.40;99.90;;;;;;5020068;28;21656;-85
2023/05/11 10:22:54;;;;;;;12.65;9.57;;;16.70;99.90;;;;;;5025423;28;20110;-86
2023/05/11 10:25:25;;;;;;;13.50;9.55;;;17.20;99.90;;;;;;5023945;28;20111;-86
2023/05/11 10:27:52;;;;;;;13.10;9.45;;;17.00;99.90;;;;;;5023178;28;20041;-86
2023/05/11 10:30:18;;;;;;;12.77;10.07;;;17.10;99.90;;;;;;5024386;28;20491;-86
2023/05/11 10:32:47;;;;;;;13.65;10.38;;;17.20;99.90;;;;;;5025446;28;20395;-86
2023/05/11 10:35:13;;;;;;;10.95;9.50;;;16.80;99.90;;;;;;5037070;28;20037;-85
2023/05/11 10:37:42;;;;;;;11.60;8.85;;;17.00;99.90;;;;;;5034469;28;20064;-86
2023/05/11 10:40:11;;;;;;;12.20;8.77;;;16.80;99.90;;;;;;5022210;28;20381;-86
2023/05/11 10:42:37;;;;;;;12.02;9.40;;;16.80;99.90;;;;;;5039601;28;20512;-86
2023/05/11 10:45:24;;;;;;;11.38;8.82;;;16.60;99.90;;;;;;5017242;28;20119;-85
2023/05/11 10:48:20;;;;;;;10.50;7.78;;;16.80;99.90;;;;;;5026066;28;20041;-86
2023/05/11 10:51:11;;;;;;;9.50;8.00;;;16.80;99.90;;;;;;5040027;28;20045;-86
2023/05/11 10:53:55;;;;;;;10.60;8.43;;;17.20;99.90;;;;;;5017019;28;20132;-86
2023/05/11 10:56:29;;;;;;;8.57;7.45;;;17.50;99.90;;;;;;5037116;28;20200;-86
2023/05/11 10:59:01;;;;;;;8.60;7.65;;;17.90;99.90;;;;;;5016478;28;20038;-85
2023/05/11 11:01:33;;;;;;;10.13;8.77;;;18.10;99.90;;;;;;5017917;28;20467;-87
2023/05/11 11:04:06;;;;;;;10.10;8.13;;;16.90;99.90;;;;;;5037384;28;20108;-86
2023/05/11 11:06:37;;;;;;;10.95;8.85;;;16.90;99.90;;;;;;5024080;28;20045;-86
2023/05/11 11:09:06;;;;;;;9.02;8.05;;;17.30;99.90;;;;;;5015513;28;20201;-85
2023/05/11 11:11:46;;;;;;;12.07;8.30;;;17.30;99.90;;;;;;5020070;28;20064;-85
2023/05/11 11:14:14;;;;;;;10.18;7.05;;;18.30;99.90;;;;;;5034344;28;20111;-86
2023/05/11 11:16:48;;;;;;;9.48;7.55;;;18.50;99.90;;;;;;5018995;28;20424;-86
2023/05/11 11:19:29;;;;;;;8.13;6.82;;;18.70;99.90;;;;;;5035661;28;20037;-86
2023/05/11 11:22:01;;;;;;;9.50;7.22;;;17.80;99.90;;;;;;5025058;28;20459;-86
2023/05/11 11:24:37;;;;;;;7.60;6.25;;;18.40;99.90;;;;;;5018548;28;20076;-86
2023/05/11 11:27:04;;;;;;;7.15;5.75;;;18.40;99.90;;;;;;5023638;28;20516;-86
2023/05/11 11:29:34;;;;;;;6.97;5.97;;;18.80;99.90;;;;;;5032364;28;20133;-87
2023/05/11 11:32:18;;;;;;;9.05;6.22;;;18.80;99.90;;;;;;5024019;28;20033;-86
2023/05/11 11:34:44;;;;;;;8.93;5.83;;;19.30;99.90;;;;;;5018603;28;20044;-86
2023/05/11 11:37:12;;;;;;;7.57;5.78;;;19.10;99.90;;;;;;5033751;28;20288;-86
2023/05/11 11:39:40;;;;;;;7.07;5.65;;;19.40;99.90;;;;;;5015612;28;20038;-86
2023/05/11 11:42:14;;;;;;;8.50;6.50;;;19.30;99.90;;;;;;5018080;28;20499;-86
2023/05/11 11:44:41;;;;;;;9.50;6.70;;;19.70;99.90;;;;;;5026253;28;20499;-86
2023/05/11 11:47:20;;;;;;;8.00;5.95;;;19.60;99.90;;;;;;5023033;28;20029;-86
2023/05/11 11:49:48;;;;;;;8.40;5.88;;;19.80;99.90;;;;;;5030335;28;20309;-86
2023/05/11 11:52:31;;;;;;;8.13;5.72;;;20.10;99.90;;;;;;5029193;28;20068;-86
2023/05/11 11:54:58;;;;;;;6.15;5.35;;;18.90;99.90;;;;;;5018401;28;20408;-86
2023/05/11 11:57:33;;;;;;;6.97;5.07;;;19.30;99.90;;;;;;5030502;28;20608;-87
2023/05/11 12:00:00;;;;;;;7.78;5.38;;;19.80;99.90;;;;;;5032778;28;20120;-87
2023/05/11 12:02:27;;;;;;;6.22;4.32;;;19.30;99.90;;;;;;5021770;28;20033;-86
2023/05/11 12:05:16;;;;;;;6.63;4.00;;;19.80;99.90;;;;;;5016314;28;20045;-87
2023/05/11 12:07:45;;;;;;;5.25;4.25;;;19.70;99.90;;;;;;5033489;28;20131;-86
2023/05/11 12:10:21;;;;;;;5.00;4.25;;;19.50;99.90;;;;;;5018810;28;20036;-87
2023/05/11 12:12:48;;;;;;;6.65;4.40;;;19.20;99.90;;;;;;5033270;28;20063;-86
2023/05/11 12:15:28;;;;;;;4.75;3.50;;;19.10;99.90;;;;;;5031605;28;20035;-87
2023/05/11 12:17:55;;;;;;;4.25;3.28;;;20.10;99.90;;;;;;5020704;28;20083;-87
2023/05/11 12:20:21;;;;;;;4.50;3.40;;;20.10;99.90;;;;;;5016417;28;20506;-87
2023/05/11 12:22:48;;;;;;;3.90;3.35;;;20.20;99.90;;;;;;5024265;28;20122;-87
2023/05/11 12:25:18;;;;;;;7.25;5.53;;;20.00;99.90;;;;;;5020935;28;20126;-87
2023/05/11 12:27:59;;;;;;;8.88;7.43;;;19.70;99.90;;;;;;5020161;28;20072;-87
2023/05/11 12:30:30;;;;;;;10.90;8.52;;;19.90;99.90;;;;;;5018374;28;20511;-87
2023/05/11 12:33:03;;;;;;;9.90;7.82;;;19.10;99.90;;;;;;5018718;28;20040;-87
2023/05/11 12:35:33;;;;;;;8.13;5.60;;;19.90;99.90;;;;;;5034834;28;20036;-87
2023/05/11 12:38:01;;;;;;;7.20;6.05;;;20.40;99.90;;;;;;5019026;28;20041;-87